createdAt,value
2023-06-17T00:01:54.480Z,18.80
2023-06-17T00:11:58.890Z,18.70
2023-06-17T00:22:00.590Z,18.60
2023-06-17T00:32:03.123Z,18.30
2023-06-17T00:42:04.997Z,17.80
2023-06-17T00:52:30.916Z,17.80
2023-06-17T01:02:33.363Z,17.60
2023-06-17T01:12:35.316Z,17.50
2023-06-17T01:22:38.792Z,17.40
2023-06-17T01:32:41.675Z,17.30
2023-06-17T01:42:46.502Z,17.20
2023-06-17T01:52:48.219Z,17.00
2023-06-17T02:02:49.989Z,16.80
2023-06-17T02:12:51.708Z,16.70
2023-06-17T02:22:53.572Z,16.60
2023-06-17T02:32:55.377Z,16.40
2023-06-17T02:42:57.080Z,16.20
2023-06-17T02:52:58.931Z,16.20
2023-06-17T03:03:00.824Z,16.20
2023-06-17T03:13:02.744Z,16.10
2023-06-17T03:23:04.498Z,16.00
2023-06-17T03:33:06.483Z,15.90
2023-06-17T03:43:08.188Z,15.80
2023-06-17T03:53:09.983Z,15.80
2023-06-17T04:03:12.755Z,15.90
2023-06-17T04:13:15.310Z,15.90
2023-06-17T04:23:16.985Z,15.90
2023-06-17T04:33:18.743Z,16.20
2023-06-17T04:43:24.121Z,16.30
2023-06-17T04:53:26.531Z,16.30
2023-06-17T05:03:28.292Z,16.50
2023-06-17T05:13:30.071Z,16.70
2023-06-17T05:23:31.824Z,16.90
2023-06-17T05:33:33.533Z,17.10
2023-06-17T05:43:35.277Z,17.40
2023-06-17T05:53:37.021Z,17.70
2023-06-17T06:03:38.882Z,18.10
2023-06-17T06:13:40.608Z,18.50
2023-06-17T06:23:42.437Z,18.70
2023-06-17T06:33:44.148Z,19.10
2023-06-17T06:43:46.922Z,19.50
2023-06-17T06:53:49.957Z,19.80
2023-06-17T07:03:51.677Z,20.20
2023-06-17T07:13:53.419Z,20.60
2023-06-17T07:23:55.133Z,21.00
2023-06-17T07:33:59.795Z,21.50
2023-06-17T07:44:02.032Z,21.90
2023-06-17T07:54:06.492Z,22.20
2023-06-17T08:04:08.407Z,22.50
2023-06-17T08:14:10.210Z,22.80
2023-06-17T08:24:18.486Z,23.10
2023-06-17T08:34:22.535Z,23.30
2023-06-17T08:44:26.324Z,23.50
2023-06-17T08:54:31.642Z,23.70
2023-06-17T09:04:34.049Z,23.90
2023-06-17T09:14:36.357Z,24.10
2023-06-17T09:24:44.119Z,24.30
2023-06-17T09:34:50.068Z,24.50
2023-06-17T09:44:51.920Z,24.70
2023-06-17T09:54:54.982Z,25.00
2023-06-17T10:04:56.838Z,25.30
2023-06-17T10:15:00.615Z,25.30
2023-06-17T10:25:02.388Z,25.40
2023-06-17T10:35:07.208Z,25.50
2023-06-17T10:45:15.131Z,25.70
2023-06-17T10:55:16.848Z,25.80
2023-06-17T11:05:18.610Z,25.70
2023-06-17T11:15:24.868Z,25.90
2023-06-17T11:25:39.843Z,26.00
2023-06-17T11:35:48.507Z,26.20
2023-06-17T11:45:50.652Z,26.20
2023-06-17T11:55:52.424Z,26.60
2023-06-17T12:05:54.511Z,26.80
2023-06-17T12:15:56.178Z,26.60
2023-06-17T12:25:58.361Z,27.20
2023-06-17T12:36:00.577Z,27.40
2023-06-17T12:46:02.466Z,27.20
2023-06-17T12:56:04.569Z,27.40
2023-06-17T13:06:06.331Z,27.40
2023-06-17T13:16:09.022Z,27.40
2023-06-17T13:26:11.456Z,27.50
2023-06-17T13:36:13.361Z,27.50
2023-06-17T13:46:15.297Z,27.80
2023-06-17T13:56:18.320Z,27.90
2023-06-17T14:06:21.129Z,28.10
2023-06-17T14:16:23.242Z,28.00
2023-06-17T14:26:24.979Z,28.20
2023-06-17T14:36:27.244Z,29.40
2023-06-17T14:46:28.945Z,29.80
2023-06-17T14:56:33.371Z,29.60
2023-06-17T15:06:35.677Z,29.50
2023-06-17T15:16:37.424Z,30.80
2023-06-17T15:26:39.463Z,31.30
2023-06-17T15:36:41.561Z,30.70
2023-06-17T15:46:43.863Z,29.40
2023-06-17T15:56:48.837Z,30.80
2023-06-17T16:06:52.226Z,33.30
2023-06-17T16:16:55.495Z,37.30
2023-06-17T16:26:57.562Z,38.40
2023-06-17T16:36:59.309Z,37.80
2023-06-17T16:47:00.984Z,33.80
2023-06-17T16:57:03.237Z,32.70
2023-06-17T17:07:05.793Z,33.10
2023-06-17T17:17:09.478Z,33.00
2023-06-17T17:27:11.515Z,35.80
2023-06-17T17:37:13.284Z,35.90
2023-06-17T17:47:15.007Z,37.10
2023-06-17T17:57:16.825Z,38.60
2023-06-17T18:07:18.551Z,38.40
2023-06-17T18:17:20.973Z,34.20
2023-06-17T18:27:34.439Z,31.10
2023-06-17T18:37:38.136Z,29.60
2023-06-17T18:47:39.921Z,28.60
2023-06-17T18:57:41.725Z,27.80
2023-06-17T19:07:45.239Z,27.20
2023-06-17T19:17:46.990Z,26.70
2023-06-17T19:27:48.734Z,26.20
2023-06-17T19:37:50.618Z,25.60
2023-06-17T19:47:52.633Z,25.10
2023-06-17T19:57:54.711Z,24.50
2023-06-17T20:07:56.470Z,24.10
2023-06-17T20:17:58.186Z,23.80
2023-06-17T20:27:59.889Z,23.40
2023-06-17T20:38:01.789Z,23.20
2023-06-17T20:48:04.196Z,22.90
2023-06-17T20:58:06.160Z,22.50
2023-06-17T21:08:07.885Z,22.10
2023-06-17T21:18:09.626Z,21.70
2023-06-17T21:28:11.376Z,21.50
2023-06-17T21:38:13.069Z,21.30
2023-06-17T21:48:14.878Z,21.00
2023-06-17T21:58:16.775Z,20.70
2023-06-17T22:08:20.244Z,20.40
2023-06-17T22:18:26.878Z,20.20
2023-06-17T22:28:28.716Z,20.00
2023-06-17T22:38:30.535Z,19.60
2023-06-17T22:48:32.268Z,19.50
2023-06-17T22:58:34.235Z,19.40
2023-06-17T23:08:35.919Z,19.30
2023-06-17T23:18:37.610Z,19.20
2023-06-17T23:28:40.997Z,19.00
2023-06-17T23:38:42.759Z,18.80
2023-06-17T23:48:44.535Z,18.70
2023-06-17T23:58:46.337Z,18.70
